Aérodrome :
LOGIN :

S'inscrire | Disclaimer

   EN    FR    IT 

 










Légende :    VFR   VFR Marginal   IFR   IFR Intensif   IFR Très Intensif
Visi : 
Plafond : 
>= 8 km
>= 3000ft
5 à 8 km
1000 à 3000 ft
1500m à 5 km
500 à 1000 ft
800 à 1500m
200 à 500 ft
< 800m
< 200 ft
Symboles :   Orages  Brouillard  Fortes neiges  Fortes précipitations  Vent > 20 kt
SIGMETs :   Divers  Orages  Givrage  Turbulence  Onde Orograph.  Cendres Volcan.







- Altitude de l'aérodrome : 74 ft
- Code IATA : EIN


EHEH - Eindhoven

DERNIER METAR :
  • 240425Z AUTO 22007KT 9999 FEW033 OVC150 16/14 Q1015 BLU 22009KT 9999 SCT035 BKN120 TEMPO SCT008 BKN012

METARs EXPIRÉS :
  • 240355Z AUTO 22008KT 9999 FEW034 BKN140 16/14 Q1014 BLU
  • 240325Z AUTO 22008KT 9999 OVC160 15/14 Q1014 BLU
  • 240255Z AUTO 22009KT 9999 OVC039 16/14 Q1014 BLU
  • 240225Z AUTO 23010KT 9999 BKN037 16/14 Q1014 BLU
  • 240155Z AUTO 23009KT 9999 OVC210 16/14 Q1014 BLU

TAF TAF EHEH
Valide du 24 à 00h jusqu'au 25 à 06h UTC


232309Z 2400/2506 24008KT 9999 FEW018 SCT020
PROB30
TEMPO 2400/2407 SCT008 BKN012
TEMPO 2407/2409 FEW014 SCT016
BECMG 2415/2418 32005KT
BECMG 2420/2422 VRB02KT
PROB30
TEMPO 2423/2506 4000 MIFG BR
Pas de NOTAMs connus pour ce terrain.



MET'MAP, la Météo Aéronautique d'un coup d'oeil ! - Copyright ORBIFLY Décembre 2007 - Disclaimer

ORBIFLY MET'MAP TEAM :

Programmation & Développement : Alexandra Zaïnal
Conception & Développement : Baudouin d'Aumeries
Co-Programmation & Développement : Marc-Olivier Méhu
Soutien technique & logistique : Manuel Goepfert

Contact : metmap@orbifly.com




SOURCES & CREDITS :

   NOAA